createdAt,value
2022-09-01T00:00:01.995Z,1.65
2022-09-01T00:02:30.061Z,1.73
2022-09-01T00:04:58.962Z,1.52
2022-09-01T00:07:30.399Z,1.63
2022-09-01T00:09:58.321Z,1.77
2022-09-01T00:12:25.829Z,1.60
2022-09-01T00:14:53.548Z,1.48
2022-09-01T00:17:20.827Z,1.42
2022-09-01T00:19:47.409Z,1.63
2022-09-01T00:22:14.046Z,1.42
2022-09-01T00:24:40.901Z,1.10
2022-09-01T00:27:07.554Z,1.23
2022-09-01T00:29:34.150Z,1.48
2022-09-01T00:32:00.723Z,1.67
2022-09-01T00:34:27.360Z,1.30
2022-09-01T00:36:53.946Z,1.60
2022-09-01T00:39:20.624Z,1.50
2022-09-01T00:41:47.961Z,1.73
2022-09-01T00:44:19.037Z,1.60
2022-09-01T00:46:55.187Z,1.63
2022-09-01T00:49:26.825Z,1.48
2022-09-01T00:51:58.183Z,1.73
2022-09-01T00:54:27.794Z,1.48
2022-09-01T00:56:57.786Z,2.17
2022-09-01T00:59:26.736Z,1.70
2022-09-01T01:01:54.367Z,1.52
2022-09-01T01:04:21.001Z,1.50
2022-09-01T01:06:58.575Z,1.83
2022-09-01T01:09:28.537Z,1.73
2022-09-01T01:12:00.251Z,1.98
2022-09-01T01:14:32.425Z,1.98
2022-09-01T01:17:00.640Z,1.35
2022-09-01T01:20:07.194Z,1.65
2022-09-01T01:22:59.663Z,1.38
2022-09-01T01:25:26.667Z,1.50
2022-09-01T01:28:04.152Z,1.70
2022-09-01T01:30:35.565Z,1.88
2022-09-01T01:33:03.477Z,2.60
2022-09-01T01:35:31.942Z,1.98
2022-09-01T01:37:58.533Z,1.50
2022-09-01T01:40:26.104Z,2.10
2022-09-01T01:42:54.420Z,1.48
2022-09-01T01:45:23.675Z,1.42
2022-09-01T01:47:53.607Z,1.70
2022-09-01T01:50:26.419Z,1.52
2022-09-01T01:52:55.169Z,1.40
2022-09-01T01:55:28.027Z,1.40
2022-09-01T01:57:56.464Z,1.40
2022-09-01T02:00:30.256Z,1.23
2022-09-01T02:02:58.558Z,1.48
2022-09-01T02:05:32.221Z,1.40
2022-09-01T02:08:09.095Z,1.55
2022-09-01T02:10:42.180Z,1.38
2022-09-01T02:13:16.228Z,1.30
2022-09-01T02:15:49.267Z,1.00
2022-09-01T02:18:19.279Z,1.27
2022-09-01T02:20:50.658Z,1.15
2022-09-01T02:23:23.511Z,1.33
2022-09-01T02:26:15.249Z,1.23
2022-09-01T02:28:43.790Z,0.98
2022-09-01T02:31:11.886Z,1.20
2022-09-01T02:33:40.550Z,1.20
2022-09-01T02:36:10.461Z,1.25
2022-09-01T02:38:39.862Z,1.23
2022-09-01T02:41:07.043Z,1.40
2022-09-01T02:43:33.893Z,1.10
2022-09-01T02:46:02.092Z,0.93
2022-09-01T02:48:33.019Z,1.25
2022-09-01T02:51:02.121Z,1.38
2022-09-01T02:53:30.891Z,0.98
2022-09-01T02:55:59.575Z,1.23
2022-09-01T02:58:27.372Z,1.27
2022-09-01T03:00:57.368Z,1.10
2022-09-01T03:03:24.813Z,1.00
2022-09-01T03:05:56.426Z,0.82
2022-09-01T03:08:24.982Z,1.20
2022-09-01T03:10:53.937Z,0.70
2022-09-01T03:13:23.984Z,0.98
2022-09-01T03:15:51.361Z,0.88
2022-09-01T03:18:21.400Z,0.80
2022-09-01T03:20:51.051Z,0.98
2022-09-01T03:23:19.307Z,1.13
2022-09-01T03:25:49.200Z,1.05
2022-09-01T03:28:16.176Z,1.05
2022-09-01T03:30:52.529Z,0.93
2022-09-01T03:33:21.888Z,1.15
2022-09-01T03:35:49.342Z,0.93
2022-09-01T03:38:24.586Z,1.20
2022-09-01T03:40:59.025Z,0.93
2022-09-01T03:43:27.796Z,0.82
2022-09-01T03:46:02.352Z,1.25
2022-09-01T03:48:31.768Z,1.08
2022-09-01T03:51:03.059Z,1.00
2022-09-01T03:53:33.749Z,1.00
2022-09-01T03:56:01.638Z,0.90
2022-09-01T03:58:28.483Z,1.10
2022-09-01T04:00:58.339Z,1.20
2022-09-01T04:03:31.884Z,0.93
2022-09-01T04:06:00.532Z,0.80
2022-09-01T04:08:32.555Z,1.45
2022-09-01T04:11:13.970Z,0.80
2022-09-01T04:13:41.855Z,1.23
2022-09-01T04:16:45.961Z,0.80
2022-09-01T04:19:25.191Z,0.80
2022-09-01T04:22:00.068Z,0.98
2022-09-01T04:24:28.604Z,1.05
2022-09-01T04:26:58.663Z,0.80
2022-09-01T04:29:29.717Z,0.95
2022-09-01T04:32:02.277Z,0.90
2022-09-01T04:34:37.312Z,0.68
2022-09-01T04:39:36.639Z,1.13
2022-09-01T04:42:09.128Z,1.30
2022-09-01T04:44:36.323Z,0.90
2022-09-01T04:47:03.247Z,0.95
2022-09-01T04:49:33.843Z,1.13
2022-09-01T04:52:00.810Z,1.00
2022-09-01T04:54:27.427Z,0.80
2022-09-01T04:56:55.079Z,0.93
2022-09-01T04:59:24.328Z,0.85
2022-09-01T05:01:54.926Z,0.60
2022-09-01T05:04:27.521Z,0.70
2022-09-01T05:07:01.133Z,0.70
2022-09-01T05:09:37.930Z,1.75
2022-09-01T05:12:12.822Z,0.82
2022-09-01T05:14:47.245Z,1.15
2022-09-01T05:17:14.393Z,1.00
2022-09-01T05:19:43.809Z,0.90
2022-09-01T05:22:11.075Z,0.85
2022-09-01T05:24:41.997Z,0.75
2022-09-01T05:27:08.979Z,0.70
2022-09-01T05:29:38.043Z,1.10
2022-09-01T05:32:08.950Z,1.27
2022-09-01T05:34:38.026Z,0.77
2022-09-01T05:37:06.486Z,0.55
2022-09-01T05:39:33.274Z,0.60
2022-09-01T05:42:01.646Z,0.73
2022-09-01T05:44:28.222Z,0.77
2022-09-01T05:46:55.950Z,0.80
2022-09-01T05:49:22.559Z,0.73
2022-09-01T05:51:52.237Z,0.70
2022-09-01T05:54:25.606Z,0.50
2022-09-01T05:56:53.721Z,0.77
2022-09-01T05:59:25.646Z,0.50
2022-09-01T06:01:54.218Z,0.40
2022-09-01T06:04:21.249Z,0.73
2022-09-01T06:07:06.127Z,0.38
2022-09-01T06:09:38.295Z,1.08
2022-09-01T06:12:06.850Z,0.68
2022-09-01T06:14:34.090Z,0.50
2022-09-01T06:17:01.054Z,0.35
2022-09-01T06:19:28.776Z,0.43
2022-09-01T06:21:56.888Z,0.35
2022-09-01T06:24:23.656Z,0.80
2022-09-01T06:26:50.262Z,0.38
2022-09-01T06:29:16.963Z,0.50
2022-09-01T06:31:51.800Z,0.70
2022-09-01T06:34:19.719Z,0.52
2022-09-01T06:36:49.625Z,0.60
2022-09-01T06:39:26.616Z,0.63
2022-09-01T06:41:54.856Z,0.63
2022-09-01T06:44:25.018Z,0.68
2022-09-01T06:46:52.616Z,0.52
2022-09-01T06:49:21.619Z,0.40
2022-09-01T06:51:49.774Z,0.45
2022-09-01T06:54:19.894Z,0.38
2022-09-01T06:56:51.527Z,0.70
2022-09-01T06:59:20.770Z,0.55
2022-09-01T07:01:49.212Z,0.60
2022-09-01T07:04:20.254Z,0.50
2022-09-01T07:12:25.959Z,0.75
2022-09-01T07:18:12.715Z,0.30
2022-09-01T07:21:02.669Z,1.40
2022-09-01T07:23:46.510Z,0.50
2022-09-01T07:29:09.381Z,0.50
2022-09-01T07:34:46.424Z,0.57
2022-09-01T07:42:31.769Z,0.55
2022-09-01T07:42:56.125Z,0.43
2022-09-01T07:45:30.894Z,0.32
2022-09-01T07:48:06.672Z,0.30
2022-09-01T07:50:41.381Z,0.40
2022-09-01T07:53:31.607Z,0.50
2022-09-01T07:56:01.472Z,0.40
2022-09-01T07:58:33.637Z,0.70
2022-09-01T08:01:02.676Z,0.32
2022-09-01T08:03:30.399Z,0.32
2022-09-01T08:06:03.979Z,0.40
2022-09-01T08:08:30.908Z,0.38
2022-09-01T08:11:05.080Z,0.50
2022-09-01T08:13:38.832Z,0.40
2022-09-01T08:16:08.988Z,0.40
2022-09-01T08:18:50.567Z,0.40
2022-09-01T08:21:22.112Z,0.47
2022-09-01T08:23:50.603Z,0.50
2022-09-01T08:26:19.564Z,0.35
2022-09-01T08:28:47.247Z,0.43
2022-09-01T08:33:51.280Z,0.55
2022-09-01T08:36:23.032Z,0.60
2022-09-01T08:38:52.396Z,0.20
2022-09-01T08:41:28.497Z,0.20
2022-09-01T08:44:21.004Z,0.20
2022-09-01T08:46:48.920Z,0.40
2022-09-01T08:49:26.082Z,0.30
2022-09-01T08:52:27.997Z,0.50
2022-09-01T08:55:04.108Z,0.60
2022-09-01T08:57:37.671Z,0.50
2022-09-01T09:00:11.527Z,0.75
2022-09-01T09:03:15.431Z,0.50
2022-09-01T09:06:08.949Z,0.20
2022-09-01T09:08:58.335Z,0.43
2022-09-01T09:11:43.357Z,0.32
2022-09-01T09:14:25.495Z,0.60
2022-09-01T09:16:56.608Z,1.58
2022-09-01T09:19:37.614Z,0.50
2022-09-01T09:22:11.841Z,0.40
2022-09-01T09:24:47.616Z,0.50
2022-09-01T09:27:30.852Z,0.22
2022-09-01T09:30:26.528Z,0.35
2022-09-01T09:35:42.218Z,0.40
2022-09-01T09:38:19.010Z,0.40
2022-09-01T09:41:25.604Z,0.40
2022-09-01T09:44:01.272Z,0.50
2022-09-01T09:46:38.963Z,0.20
2022-09-01T09:49:36.568Z,0.60
2022-09-01T09:52:09.751Z,0.30
2022-09-01T09:54:57.229Z,0.45
2022-09-01T09:57:24.491Z,0.45
2022-09-01T10:00:18.364Z,0.50
2022-09-01T10:02:52.007Z,0.80
2022-09-01T10:05:27.994Z,0.50
2022-09-01T10:07:56.065Z,0.30
2022-09-01T10:10:38.814Z,0.30
2022-09-01T10:13:10.284Z,0.60
2022-09-01T10:15:37.855Z,0.32
2022-09-01T10:18:20.590Z,0.60
2022-09-01T10:21:07.162Z,0.40
2022-09-01T10:23:36.241Z,0.73
2022-09-01T10:26:14.500Z,0.22
2022-09-01T10:28:52.863Z,0.60
2022-09-01T10:31:20.575Z,0.57
2022-09-01T10:33:48.419Z,0.60
2022-09-01T10:36:16.225Z,0.80
2022-09-01T10:38:52.777Z,0.47
2022-09-01T10:41:43.534Z,0.60
2022-09-01T10:44:19.352Z,0.45
2022-09-01T10:46:50.919Z,0.20
2022-09-01T10:49:28.071Z,0.50
2022-09-01T10:52:03.325Z,0.40
2022-09-01T10:54:50.810Z,0.47
2022-09-01T10:57:28.274Z,0.50
2022-09-01T11:00:39.915Z,0.38
2022-09-01T11:06:12.943Z,0.30
2022-09-01T11:08:39.869Z,0.30
2022-09-01T11:11:37.934Z,0.38
2022-09-01T11:14:17.425Z,0.45
2022-09-01T11:17:04.067Z,0.50
2022-09-01T11:19:41.242Z,0.50
2022-09-01T11:22:14.039Z,0.43
2022-09-01T11:24:41.507Z,0.70
2022-09-01T11:27:12.719Z,0.55
2022-09-01T11:29:58.851Z,0.60
2022-09-01T11:32:35.601Z,0.47
2022-09-01T11:35:18.378Z,0.60
2022-09-01T11:37:49.312Z,0.30
2022-09-01T11:40:31.292Z,0.50
2022-09-01T11:43:04.608Z,0.47
2022-09-01T11:45:34.005Z,0.50
2022-09-01T11:48:10.450Z,0.40
2022-09-01T11:50:39.607Z,0.85
2022-09-01T11:53:14.051Z,0.40
2022-09-01T11:55:43.814Z,0.50
2022-09-01T11:58:17.615Z,0.50
2022-09-01T12:00:44.838Z,0.40
2022-09-01T12:03:27.158Z,0.30
2022-09-01T12:06:00.439Z,0.28
2022-09-01T12:08:30.744Z,0.50
2022-09-01T12:11:22.597Z,0.30
2022-09-01T12:14:01.795Z,0.40
2022-09-01T12:16:34.897Z,0.50
2022-09-01T12:19:01.625Z,0.47
2022-09-01T12:21:31.720Z,0.32
2022-09-01T12:24:20.804Z,0.30
2022-09-01T12:26:50.565Z,0.30
2022-09-01T12:29:18.240Z,0.30
2022-09-01T12:31:48.308Z,0.40
2022-09-01T12:34:33.081Z,0.45
2022-09-01T12:37:09.396Z,0.25
2022-09-01T12:39:46.027Z,0.20
2022-09-01T12:42:27.502Z,0.52
2022-09-01T12:45:02.463Z,0.32
2022-09-01T12:49:58.447Z,0.25
2022-09-01T12:52:27.215Z,0.35
2022-09-01T12:55:47.386Z,0.25
2022-09-01T12:58:06.523Z,0.28
2022-09-01T13:00:55.869Z,0.20
2022-09-01T13:03:23.435Z,0.22
2022-09-01T13:05:52.759Z,0.45
2022-09-01T13:08:22.522Z,0.20
2022-09-01T13:10:53.369Z,0.25
2022-09-01T13:13:21.592Z,0.20
2022-09-01T13:15:51.644Z,0.43
2022-09-01T13:18:21.480Z,0.10
2022-09-01T13:20:49.449Z,0.40
2022-09-01T13:23:17.178Z,0.40
2022-09-01T13:25:46.743Z,0.30
2022-09-01T13:28:17.159Z,0.75
2022-09-01T13:30:46.894Z,0.45
2022-09-01T13:33:22.802Z,0.30
2022-09-01T13:35:51.385Z,0.35
2022-09-01T13:38:18.681Z,0.40
2022-09-01T13:40:47.268Z,0.40
2022-09-01T13:43:16.021Z,0.30
2022-09-01T13:45:45.071Z,0.35
2022-09-01T13:48:16.691Z,0.40
2022-09-01T13:53:32.104Z,0.30
2022-09-01T13:55:58.941Z,0.40
2022-09-01T13:58:25.614Z,0.38
2022-09-01T14:00:52.235Z,0.20
2022-09-01T14:03:23.250Z,0.20
2022-09-01T14:05:50.578Z,0.20
2022-09-01T14:08:19.877Z,0.32
2022-09-01T14:10:50.918Z,0.32
2022-09-01T14:13:19.327Z,0.13
2022-09-01T14:15:47.146Z,0.30
2022-09-01T14:18:16.263Z,0.32
2022-09-01T14:20:46.631Z,0.30
2022-09-01T14:23:14.823Z,0.40
2022-09-01T14:25:51.467Z,0.30
2022-09-01T14:28:20.835Z,0.25
2022-09-01T14:30:48.992Z,0.40
2022-09-01T14:33:15.722Z,0.28
2022-09-01T14:35:47.077Z,0.43
2022-09-01T14:38:15.032Z,0.85
2022-09-01T14:40:46.679Z,0.30
2022-09-01T14:43:14.392Z,0.25
2022-09-01T14:45:47.502Z,0.40
2022-09-01T14:48:18.606Z,0.50
2022-09-01T14:50:48.811Z,0.30
2022-09-01T14:53:15.715Z,0.30
2022-09-01T14:55:44.023Z,0.28
2022-09-01T14:58:11.234Z,0.40
2022-09-01T15:00:39.148Z,0.50
2022-09-01T15:03:05.946Z,0.32
2022-09-01T15:05:38.338Z,0.28
2022-09-01T15:08:08.215Z,0.47
2022-09-01T15:10:36.607Z,0.50
2022-09-01T15:13:04.399Z,0.40
2022-09-01T15:15:31.475Z,0.20
2022-09-01T15:17:59.883Z,0.30
2022-09-01T15:20:45.227Z,0.28
2022-09-01T15:23:18.484Z,0.40
2022-09-01T15:25:45.520Z,0.20
2022-09-01T15:28:13.106Z,0.30
2022-09-01T15:30:41.053Z,0.40
2022-09-01T15:33:13.221Z,0.50
2022-09-01T15:35:41.940Z,0.27
2022-09-01T15:38:08.819Z,0.43
2022-09-01T15:40:39.451Z,0.30
2022-09-01T15:43:06.549Z,0.30
2022-09-01T15:45:33.472Z,0.40
2022-09-01T15:48:00.054Z,0.30
2022-09-01T15:50:27.867Z,0.20
2022-09-01T15:52:59.703Z,0.32
2022-09-01T15:55:30.330Z,0.20
2022-09-01T15:57:58.951Z,0.20
2022-09-01T16:00:26.841Z,0.40
2022-09-01T16:02:56.537Z,0.20
2022-09-01T16:05:25.197Z,0.30
2022-09-01T16:07:53.001Z,0.32
2022-09-01T16:10:19.767Z,0.63
2022-09-01T16:12:46.677Z,1.33
2022-09-01T16:15:15.747Z,0.40
2022-09-01T16:18:14.667Z,0.40
2022-09-01T16:21:12.266Z,0.47
2022-09-01T16:23:44.193Z,0.52
2022-09-01T16:26:12.156Z,0.60
2022-09-01T16:28:39.668Z,0.43
2022-09-01T16:31:21.189Z,0.35
2022-09-01T16:33:56.005Z,0.50
2022-09-01T16:36:40.886Z,0.32
2022-09-01T16:39:37.637Z,0.22
2022-09-01T16:42:38.318Z,0.30
2022-09-01T16:45:25.046Z,0.50
2022-09-01T16:48:30.432Z,0.40
2022-09-01T16:51:13.671Z,0.47
2022-09-01T16:54:00.856Z,0.43
2022-09-01T16:56:39.339Z,0.80
2022-09-01T16:59:34.547Z,0.68
2022-09-01T17:02:18.619Z,0.67
2022-09-01T17:04:53.470Z,0.40
2022-09-01T17:07:32.475Z,0.40
2022-09-01T17:10:33.554Z,0.70
2022-09-01T17:13:16.572Z,0.60
2022-09-01T17:15:48.079Z,0.50
2022-09-01T17:18:27.033Z,0.80
2022-09-01T17:21:02.307Z,0.73
2022-09-01T17:26:07.319Z,0.60
2022-09-01T17:28:44.062Z,0.52
2022-09-01T17:31:29.714Z,0.65
2022-09-01T17:34:22.191Z,0.55
2022-09-01T17:37:09.919Z,0.50
2022-09-01T17:39:37.021Z,0.40
2022-09-01T17:42:21.763Z,0.70
2022-09-01T17:44:56.403Z,0.90
2022-09-01T17:48:04.513Z,0.60
2022-09-01T17:50:40.191Z,0.63
2022-09-01T17:53:19.695Z,0.40
2022-09-01T17:55:56.514Z,0.40
2022-09-01T17:58:43.995Z,0.40
2022-09-01T18:01:17.994Z,0.60
2022-09-01T18:04:06.212Z,0.60
2022-09-01T18:06:51.492Z,0.30
2022-09-01T18:09:22.708Z,0.55
2022-09-01T18:12:03.267Z,0.65
2022-09-01T18:15:18.162Z,0.77
2022-09-01T18:17:53.012Z,0.70
2022-09-01T18:20:36.679Z,0.52
2022-09-01T18:23:03.231Z,0.80
2022-09-01T18:25:40.625Z,0.63
2022-09-01T18:28:08.692Z,0.52
2022-09-01T18:30:55.451Z,1.05
2022-09-01T18:33:27.370Z,0.70
2022-09-01T18:36:03.770Z,0.50
2022-09-01T18:38:44.415Z,1.42
2022-09-01T18:41:23.023Z,0.50
2022-09-01T18:44:02.831Z,0.68
2022-09-01T18:46:41.521Z,0.50
2022-09-01T18:49:44.544Z,0.88
2022-09-01T18:52:42.547Z,0.35
2022-09-01T18:55:15.211Z,0.88
2022-09-01T18:57:45.371Z,0.28
2022-09-01T19:00:39.180Z,0.50
2022-09-01T19:03:27.697Z,0.57
2022-09-01T19:06:27.170Z,0.45
2022-09-01T19:09:05.143Z,0.55
2022-09-01T19:11:38.339Z,0.60
2022-09-01T19:14:16.891Z,0.35
2022-09-01T19:17:09.054Z,0.50
2022-09-01T19:19:43.805Z,0.60
2022-09-01T19:22:18.796Z,0.50
2022-09-01T19:25:16.542Z,0.60
2022-09-01T19:27:50.578Z,0.50
2022-09-01T19:30:17.271Z,0.50
2022-09-01T19:32:43.979Z,0.43
2022-09-01T19:35:14.618Z,0.80
2022-09-01T19:37:41.675Z,0.60
2022-09-01T19:40:10.343Z,0.50
2022-09-01T19:42:36.932Z,0.60
2022-09-01T19:45:06.917Z,0.50
2022-09-01T19:47:45.796Z,0.55
2022-09-01T19:50:41.884Z,0.50
2022-09-01T19:55:58.179Z,0.35
2022-09-01T19:58:42.511Z,0.70
2022-09-01T20:01:14.472Z,0.50
2022-09-01T20:03:46.753Z,0.65
2022-09-01T20:06:36.012Z,1.00
2022-09-01T20:09:28.936Z,0.80
2022-09-01T20:12:00.050Z,0.90
2022-09-01T20:14:53.898Z,0.65
2022-09-01T20:17:27.269Z,0.60
2022-09-01T20:20:16.421Z,0.73
2022-09-01T20:22:52.010Z,0.50
2022-09-01T20:25:27.327Z,0.80
2022-09-01T20:28:24.790Z,0.45
2022-09-01T20:30:58.417Z,0.50
2022-09-01T20:33:40.404Z,1.10
2022-09-01T20:36:18.352Z,0.90
2022-09-01T20:39:22.835Z,0.90
2022-09-01T20:42:10.557Z,0.75
2022-09-01T20:44:45.167Z,0.95
2022-09-01T20:47:12.535Z,0.68
2022-09-01T20:49:40.143Z,0.57
2022-09-01T20:52:22.119Z,0.65
2022-09-01T20:55:08.907Z,0.73
2022-09-01T20:57:56.535Z,1.00
2022-09-01T21:00:26.409Z,1.50
2022-09-01T21:03:06.102Z,1.00
2022-09-01T21:08:32.911Z,0.68
2022-09-01T21:11:14.366Z,1.30
2022-09-01T21:13:46.870Z,0.85
2022-09-01T21:16:22.313Z,0.60
2022-09-01T21:19:14.586Z,0.90
2022-09-01T21:22:02.993Z,1.05
2022-09-01T21:24:29.562Z,1.15
2022-09-01T21:26:57.749Z,0.65
2022-09-01T21:29:36.579Z,0.63
2022-09-01T21:32:03.796Z,0.80
2022-09-01T21:34:30.389Z,0.43
2022-09-01T21:36:56.949Z,0.50
2022-09-01T21:39:23.795Z,0.50
2022-09-01T21:41:50.625Z,0.70
2022-09-01T21:44:17.607Z,0.70
2022-09-01T21:46:44.279Z,0.80
2022-09-01T21:49:12.758Z,0.45
2022-09-01T21:51:39.418Z,0.60
2022-09-01T21:54:06.036Z,0.60
2022-09-01T21:56:32.739Z,0.60
2022-09-01T21:58:59.814Z,0.55
2022-09-01T22:01:33.775Z,0.60
2022-09-01T22:04:01.654Z,0.70
2022-09-01T22:06:28.345Z,0.80
2022-09-01T22:08:54.908Z,0.70
2022-09-01T22:11:22.061Z,0.70
2022-09-01T22:13:49.850Z,0.70
2022-09-01T22:16:19.142Z,0.80
2022-09-01T22:18:45.947Z,0.50
2022-09-01T22:21:13.516Z,1.10
2022-09-01T22:23:41.817Z,0.50
2022-09-01T22:26:13.640Z,0.60
2022-09-01T22:28:42.158Z,0.73
2022-09-01T22:31:14.929Z,0.70
2022-09-01T22:33:41.903Z,0.85
2022-09-01T22:36:09.011Z,0.88
2022-09-01T22:38:35.578Z,0.70
2022-09-01T22:41:02.493Z,0.70
2022-09-01T22:43:30.361Z,0.60
2022-09-01T22:45:58.418Z,0.80
2022-09-01T22:48:27.140Z,0.80
2022-09-01T22:50:53.742Z,0.85
2022-09-01T22:53:22.276Z,0.90
2022-09-01T22:55:50.971Z,0.80
2022-09-01T22:58:18.290Z,0.90
2022-09-01T23:00:48.890Z,1.02
2022-09-01T23:03:16.178Z,0.73
2022-09-01T23:05:43.614Z,1.20
2022-09-01T23:08:10.988Z,0.70
2022-09-01T23:10:37.656Z,1.17
2022-09-01T23:13:04.250Z,0.82
2022-09-01T23:15:31.253Z,1.00
2022-09-01T23:17:57.834Z,0.90
2022-09-01T23:20:24.562Z,0.80
2022-09-01T23:22:51.197Z,1.10
2022-09-01T23:25:17.827Z,1.10
2022-09-01T23:27:45.083Z,0.85
2022-09-01T23:30:14.274Z,1.17
2022-09-01T23:32:41.051Z,1.00
2022-09-01T23:35:08.595Z,1.08
2022-09-01T23:37:35.234Z,1.20
2022-09-01T23:40:02.094Z,0.85
2022-09-01T23:42:28.641Z,1.63
2022-09-01T23:44:55.308Z,1.10
2022-09-01T23:47:21.941Z,1.20
2022-09-01T23:49:48.516Z,1.20
2022-09-01T23:52:16.227Z,1.02
2022-09-01T23:54:42.910Z,0.90
2022-09-01T23:57:09.466Z,1.15
2022-09-01T23:59:36.046Z,1.27
